createdAt,value
2018-09-21T00:00:43.311Z,13.80
2018-09-21T00:03:12.490Z,13.90
2018-09-21T00:05:40.999Z,14.00
2018-09-21T00:08:09.505Z,13.90
2018-09-21T00:10:38.021Z,14.00
2018-09-21T00:13:06.595Z,14.00
2018-09-21T00:15:35.227Z,14.00
2018-09-21T00:18:03.746Z,13.80
2018-09-21T00:20:32.236Z,13.70
2018-09-21T00:23:00.770Z,13.80
2018-09-21T00:25:29.304Z,14.00
2018-09-21T00:27:57.830Z,13.70
2018-09-21T00:30:26.346Z,13.60
2018-09-21T00:32:57.734Z,13.60
2018-09-21T00:35:26.206Z,13.70
2018-09-21T00:37:54.757Z,13.70
2018-09-21T00:40:23.292Z,13.70
2018-09-21T00:42:51.896Z,13.60
2018-09-21T00:45:20.434Z,13.40
2018-09-21T00:47:49.014Z,13.20
2018-09-21T00:50:17.505Z,13.00
2018-09-21T00:52:46.038Z,13.10
2018-09-21T00:55:14.534Z,13.20
2018-09-21T00:57:43.077Z,13.40
2018-09-21T01:00:11.682Z,13.40
2018-09-21T01:02:40.254Z,13.30
2018-09-21T01:05:08.820Z,13.40
2018-09-21T01:07:37.376Z,13.20
2018-09-21T01:10:05.986Z,13.20
2018-09-21T01:12:34.566Z,13.20
2018-09-21T01:15:03.149Z,13.10
2018-09-21T01:17:31.722Z,13.10
2018-09-21T01:20:00.314Z,13.10
2018-09-21T01:22:28.880Z,13.00
2018-09-21T01:24:57.507Z,13.10
2018-09-21T01:27:26.032Z,13.10
2018-09-21T01:29:54.597Z,13.20
2018-09-21T01:32:23.183Z,13.10
2018-09-21T01:34:51.749Z,13.00
2018-09-21T01:37:20.281Z,12.70
2018-09-21T01:39:48.909Z,12.80
2018-09-21T01:42:17.458Z,12.90
2018-09-21T01:44:46.017Z,12.90
2018-09-21T01:47:14.573Z,12.90
2018-09-21T01:49:43.129Z,12.90
2018-09-21T01:52:11.686Z,12.90
2018-09-21T01:54:40.275Z,12.80
2018-09-21T01:57:08.870Z,12.60
2018-09-21T01:59:37.442Z,12.60
2018-09-21T02:02:06.089Z,12.70
2018-09-21T02:04:41.406Z,12.80
2018-09-21T02:07:11.100Z,12.50
2018-09-21T02:09:39.843Z,12.40
2018-09-21T02:12:08.406Z,12.30
2018-09-21T02:14:37.033Z,12.30
2018-09-21T02:17:05.691Z,12.30
2018-09-21T02:19:34.296Z,12.30
2018-09-21T02:22:02.853Z,12.40
2018-09-21T02:24:31.402Z,12.40
2018-09-21T02:27:00.004Z,12.40
2018-09-21T02:29:28.550Z,12.30
2018-09-21T02:31:57.145Z,12.40
2018-09-21T02:34:25.772Z,12.30
2018-09-21T02:36:54.349Z,12.30
2018-09-21T02:39:22.922Z,12.40
2018-09-21T02:41:51.480Z,12.20
2018-09-21T02:44:20.030Z,12.20
2018-09-21T02:46:48.587Z,12.20
2018-09-21T02:49:17.095Z,12.00
2018-09-21T02:51:45.648Z,11.90
2018-09-21T02:54:14.172Z,11.90
2018-09-21T02:56:43.431Z,11.90
2018-09-21T02:59:11.946Z,11.90
2018-09-21T03:01:40.533Z,11.80
2018-09-21T03:04:09.054Z,11.80
2018-09-21T03:06:37.595Z,11.90
2018-09-21T03:09:08.070Z,11.90
2018-09-21T03:11:36.723Z,11.90
2018-09-21T03:14:05.330Z,12.00
2018-09-21T03:16:33.844Z,12.00
2018-09-21T03:19:02.370Z,12.00
2018-09-21T03:21:30.909Z,11.90
2018-09-21T03:23:59.461Z,11.70
2018-09-21T03:26:27.990Z,11.70
2018-09-21T03:28:56.689Z,11.70
2018-09-21T03:31:25.174Z,12.00
2018-09-21T03:33:53.710Z,11.80
2018-09-21T03:36:22.240Z,11.30
2018-09-21T03:38:50.777Z,11.30
2018-09-21T03:41:19.337Z,11.40
2018-09-21T03:43:47.924Z,11.50
2018-09-21T03:46:16.429Z,11.60
2018-09-21T03:48:44.959Z,11.60
2018-09-21T03:51:13.470Z,11.60
2018-09-21T03:53:41.989Z,11.50
2018-09-21T03:56:10.498Z,11.50
2018-09-21T03:58:39.035Z,11.50
2018-09-21T04:01:07.708Z,11.50
2018-09-21T04:03:36.171Z,11.60
2018-09-21T04:06:04.705Z,11.60
2018-09-21T04:08:33.237Z,11.60
2018-09-21T04:11:01.745Z,11.60
2018-09-21T04:13:30.279Z,11.60
2018-09-21T04:15:58.805Z,11.50
2018-09-21T04:18:27.371Z,11.30
2018-09-21T04:20:55.873Z,11.40
2018-09-21T04:23:24.371Z,11.40
2018-09-21T04:25:52.905Z,11.40
2018-09-21T04:28:21.406Z,11.30
2018-09-21T04:30:49.927Z,11.30
2018-09-21T04:33:18.450Z,11.30
2018-09-21T04:35:47.017Z,11.50
2018-09-21T04:38:15.541Z,11.30
2018-09-21T04:40:44.101Z,11.40
2018-09-21T04:43:12.628Z,11.30
2018-09-21T04:45:41.275Z,11.20
2018-09-21T04:48:09.768Z,11.20
2018-09-21T04:50:38.294Z,11.20
2018-09-21T04:53:06.993Z,11.20
2018-09-21T04:55:35.533Z,11.20
2018-09-21T04:58:04.071Z,11.20
2018-09-21T05:00:32.628Z,11.20
2018-09-21T05:03:01.142Z,11.10
2018-09-21T05:05:29.733Z,11.20
2018-09-21T05:07:58.322Z,11.10
2018-09-21T05:10:26.879Z,11.30
2018-09-21T05:12:55.423Z,11.40
2018-09-21T05:15:23.973Z,11.20
2018-09-21T05:17:52.512Z,11.30
2018-09-21T05:20:21.153Z,11.40
2018-09-21T05:22:49.698Z,11.50
2018-09-21T05:25:18.241Z,11.60
2018-09-21T05:27:46.813Z,11.70
2018-09-21T05:30:15.336Z,11.70
2018-09-21T05:32:43.909Z,11.70
2018-09-21T05:35:12.502Z,11.70
2018-09-21T05:37:41.064Z,11.70
2018-09-21T05:40:09.591Z,11.60
2018-09-21T05:42:38.169Z,11.70
2018-09-21T05:45:07.058Z,11.90
2018-09-21T05:47:35.653Z,12.10
2018-09-21T05:50:04.220Z,12.10
2018-09-21T05:52:32.758Z,12.40
2018-09-21T05:55:01.278Z,12.40
2018-09-21T05:57:29.826Z,12.50
2018-09-21T05:59:58.351Z,12.40
2018-09-21T06:02:26.952Z,12.40
2018-09-21T06:05:00.949Z,12.40
2018-09-21T06:07:29.597Z,12.60
2018-09-21T06:09:58.125Z,13.00
2018-09-21T06:12:26.714Z,12.90
2018-09-21T06:14:55.269Z,12.80
2018-09-21T06:17:23.886Z,13.30
2018-09-21T06:19:52.599Z,13.60
2018-09-21T06:22:21.231Z,13.80
2018-09-21T06:24:49.834Z,14.00
2018-09-21T06:27:18.400Z,14.40
2018-09-21T06:29:47.157Z,14.50
2018-09-21T06:32:15.771Z,14.80
2018-09-21T06:34:44.325Z,15.20
2018-09-21T06:37:12.849Z,15.40
2018-09-21T06:39:41.420Z,15.90
2018-09-21T06:42:09.949Z,16.20
2018-09-21T06:44:38.515Z,16.50
2018-09-21T06:47:07.149Z,16.50
2018-09-21T06:49:35.694Z,16.90
2018-09-21T06:52:04.246Z,17.40
2018-09-21T06:54:32.820Z,17.60
2018-09-21T06:57:01.369Z,18.00
2018-09-21T06:59:29.894Z,18.40
2018-09-21T07:01:58.532Z,18.80
2018-09-21T07:04:27.082Z,19.10
2018-09-21T07:06:55.656Z,19.40
2018-09-21T07:09:24.204Z,19.70
2018-09-21T07:11:52.754Z,20.00
2018-09-21T07:14:21.385Z,20.30
2018-09-21T07:16:49.965Z,20.70
2018-09-21T07:19:18.661Z,20.70
2018-09-21T07:21:47.190Z,21.00
2018-09-21T07:24:15.756Z,21.60
2018-09-21T07:26:44.315Z,22.10
2018-09-21T07:29:12.842Z,22.30
2018-09-21T07:31:41.726Z,22.40
2018-09-21T07:34:10.309Z,22.60
2018-09-21T07:36:38.906Z,22.90
2018-09-21T07:39:08.058Z,23.10
2018-09-21T07:41:36.806Z,22.90
2018-09-21T07:44:05.406Z,23.00
2018-09-21T07:46:34.006Z,23.30
2018-09-21T07:49:02.596Z,23.40
2018-09-21T07:51:31.183Z,23.60
2018-09-21T07:53:59.797Z,23.60
2018-09-21T07:56:28.421Z,23.50
2018-09-21T07:58:56.994Z,23.50
2018-09-21T08:01:25.560Z,23.50
2018-09-21T08:03:54.125Z,23.60
2018-09-21T08:06:22.685Z,23.60
2018-09-21T08:08:51.205Z,23.70
2018-09-21T08:11:19.853Z,23.60
2018-09-21T08:13:48.395Z,23.70
2018-09-21T08:16:16.934Z,23.60
2018-09-21T08:18:45.466Z,23.60
2018-09-21T08:21:14.025Z,23.60
2018-09-21T08:23:42.585Z,23.60
2018-09-21T08:26:11.223Z,23.70
2018-09-21T08:28:39.845Z,23.70
2018-09-21T08:31:08.380Z,23.80
2018-09-21T08:33:36.937Z,23.70
2018-09-21T08:36:05.485Z,23.80
2018-09-21T08:38:34.025Z,23.90
2018-09-21T08:41:02.586Z,23.90
2018-09-21T08:43:31.178Z,24.00
2018-09-21T08:45:59.782Z,23.90
2018-09-21T08:48:28.330Z,24.10
2018-09-21T08:50:56.925Z,24.20
2018-09-21T08:53:25.615Z,24.20
2018-09-21T08:55:54.167Z,24.20
2018-09-21T08:58:22.730Z,24.30
2018-09-21T09:00:51.277Z,24.40
2018-09-21T09:03:19.874Z,24.40
2018-09-21T09:05:53.754Z,24.60
2018-09-21T09:08:23.982Z,24.80
2018-09-21T09:10:52.926Z,24.90
2018-09-21T09:13:21.482Z,25.00
2018-09-21T09:15:50.816Z,24.90
2018-09-21T09:18:19.533Z,24.90
2018-09-21T09:20:48.425Z,25.00
2018-09-21T09:23:17.066Z,25.10
2018-09-21T09:25:45.555Z,25.00
2018-09-21T09:28:14.132Z,25.00
2018-09-21T09:30:42.654Z,25.10
2018-09-21T09:33:11.229Z,25.10
2018-09-21T09:35:39.797Z,25.30
2018-09-21T09:38:08.431Z,25.70
2018-09-21T09:40:37.014Z,26.20
2018-09-21T09:43:05.743Z,26.10
2018-09-21T09:45:34.201Z,26.20
2018-09-21T09:48:02.715Z,26.20
2018-09-21T09:50:31.318Z,26.10
2018-09-21T09:52:59.901Z,25.90
2018-09-21T09:55:28.450Z,25.90
2018-09-21T09:57:56.953Z,25.80
2018-09-21T10:00:30.891Z,25.80
2018-09-21T10:02:59.382Z,25.80
2018-09-21T10:05:27.918Z,25.70
2018-09-21T10:07:56.549Z,25.70
2018-09-21T10:10:25.158Z,25.70
2018-09-21T10:12:53.705Z,25.60
2018-09-21T10:15:22.253Z,25.60
2018-09-21T10:17:50.768Z,25.70
2018-09-21T10:20:19.459Z,25.80
2018-09-21T10:22:48.061Z,25.70
2018-09-21T10:25:16.675Z,25.60
2018-09-21T10:27:45.378Z,25.60
2018-09-21T10:30:13.853Z,25.50
2018-09-21T10:32:42.398Z,25.60
2018-09-21T10:35:10.950Z,25.60
2018-09-21T10:37:39.516Z,25.50
2018-09-21T10:40:08.142Z,25.60
2018-09-21T10:42:36.724Z,25.50
2018-09-21T10:45:05.489Z,25.50
2018-09-21T10:47:34.081Z,25.50
2018-09-21T10:50:02.650Z,25.50
2018-09-21T10:52:31.279Z,25.50
2018-09-21T10:54:59.796Z,25.40
2018-09-21T10:57:28.353Z,25.50
2018-09-21T10:59:56.948Z,25.60
2018-09-21T11:02:25.536Z,25.60
2018-09-21T11:04:54.050Z,25.60
2018-09-21T11:07:22.630Z,25.50
2018-09-21T11:09:51.176Z,25.50
2018-09-21T11:12:19.726Z,25.40
2018-09-21T11:14:48.232Z,25.50
2018-09-21T11:17:16.820Z,25.50
2018-09-21T11:19:45.338Z,25.50
2018-09-21T11:22:13.882Z,25.50
2018-09-21T11:24:42.414Z,25.60
2018-09-21T11:27:10.962Z,25.70
2018-09-21T11:29:39.512Z,25.50
2018-09-21T11:32:08.096Z,25.40
2018-09-21T11:34:36.653Z,25.40
2018-09-21T11:37:05.302Z,25.30
2018-09-21T11:39:33.879Z,25.50
2018-09-21T11:42:02.562Z,25.50
2018-09-21T11:44:31.085Z,25.30
2018-09-21T11:46:59.644Z,25.20
2018-09-21T11:49:28.209Z,25.00
2018-09-21T11:51:56.737Z,25.10
2018-09-21T11:54:25.302Z,25.10
2018-09-21T11:56:53.822Z,25.00
2018-09-21T11:59:22.401Z,25.00
2018-09-21T12:01:50.968Z,25.00
2018-09-21T12:04:19.526Z,25.00
2018-09-21T12:06:48.217Z,24.90
2018-09-21T12:09:16.764Z,24.90
2018-09-21T12:11:45.409Z,24.90
2018-09-21T12:14:13.949Z,24.90
2018-09-21T12:16:42.494Z,24.90
2018-09-21T12:19:11.074Z,24.90
2018-09-21T12:21:39.691Z,24.90
2018-09-21T12:24:08.254Z,25.00
2018-09-21T12:26:36.786Z,24.90
2018-09-21T12:29:05.354Z,24.90
2018-09-21T12:31:33.889Z,25.00
2018-09-21T12:34:02.485Z,25.00
2018-09-21T12:36:31.072Z,25.00
2018-09-21T12:38:59.649Z,25.00
2018-09-21T12:41:28.189Z,25.00
2018-09-21T12:43:56.814Z,25.20
2018-09-21T12:46:28.372Z,25.10
2018-09-21T12:49:00.777Z,24.90
2018-09-21T12:51:29.328Z,24.90
2018-09-21T12:53:57.890Z,24.90
2018-09-21T12:56:26.891Z,24.90
2018-09-21T12:58:55.584Z,25.00
2018-09-21T13:01:24.064Z,25.00
2018-09-21T13:03:52.814Z,25.00
2018-09-21T13:06:21.423Z,24.90
2018-09-21T13:08:50.055Z,25.00
2018-09-21T13:11:18.607Z,24.90
2018-09-21T13:13:47.141Z,24.90
2018-09-21T13:16:15.718Z,25.00
2018-09-21T13:18:44.237Z,24.80
2018-09-21T13:21:12.799Z,24.80
2018-09-21T13:23:41.369Z,24.70
2018-09-21T13:26:11.065Z,24.60
2018-09-21T13:28:39.606Z,24.60
2018-09-21T13:31:08.299Z,24.60
2018-09-21T13:33:36.854Z,24.60
2018-09-21T13:36:05.585Z,24.50
2018-09-21T13:38:34.110Z,24.40
2018-09-21T13:41:02.680Z,24.40
2018-09-21T13:43:31.223Z,24.40
2018-09-21T13:45:59.784Z,24.30
2018-09-21T13:48:28.314Z,24.20
2018-09-21T13:50:56.877Z,24.20
2018-09-21T13:53:25.423Z,24.20
2018-09-21T13:55:53.950Z,24.20
2018-09-21T13:58:22.535Z,24.20
2018-09-21T14:00:51.085Z,24.20
2018-09-21T14:03:19.755Z,24.40
2018-09-21T14:05:48.369Z,24.30
2018-09-21T14:08:16.983Z,24.30
2018-09-21T14:10:45.563Z,24.30
2018-09-21T14:13:14.124Z,24.30
2018-09-21T14:15:42.824Z,24.20
2018-09-21T14:18:11.398Z,24.20
2018-09-21T14:20:39.967Z,24.20
2018-09-21T14:23:08.662Z,24.20
2018-09-21T14:25:37.327Z,24.10
2018-09-21T14:28:05.913Z,24.20
2018-09-21T14:30:34.453Z,24.20
2018-09-21T14:33:02.985Z,24.20
2018-09-21T14:35:31.566Z,24.20
2018-09-21T14:38:06.762Z,24.20
2018-09-21T14:40:35.278Z,24.20
2018-09-21T14:43:03.918Z,24.20
2018-09-21T14:45:32.457Z,24.30
2018-09-21T14:48:01.104Z,24.20
2018-09-21T14:50:29.714Z,23.60
2018-09-21T14:52:58.201Z,22.80
2018-09-21T14:55:26.761Z,22.40
2018-09-21T14:57:55.271Z,22.00
2018-09-21T15:00:23.905Z,21.50
2018-09-21T15:02:52.436Z,21.10
2018-09-21T15:05:21.014Z,20.30
2018-09-21T15:07:49.804Z,19.50
2018-09-21T15:10:18.422Z,18.70
2018-09-21T15:12:46.986Z,18.50
2018-09-21T15:15:15.581Z,18.20
2018-09-21T15:17:44.189Z,18.00
2018-09-21T15:20:12.789Z,17.70
2018-09-21T15:22:41.330Z,17.60
2018-09-21T15:25:09.865Z,17.30
2018-09-21T15:27:38.437Z,16.80
2018-09-21T15:30:07.005Z,16.60
2018-09-21T15:32:35.541Z,16.30
2018-09-21T15:35:04.153Z,16.30
2018-09-21T15:37:32.669Z,16.20
2018-09-21T15:40:01.216Z,16.20
2018-09-21T15:42:31.221Z,16.00
2018-09-21T15:44:59.770Z,16.00
2018-09-21T15:47:28.321Z,15.70
2018-09-21T15:49:56.919Z,15.80
2018-09-21T15:52:25.501Z,15.60
2018-09-21T15:54:54.066Z,15.70
2018-09-21T15:57:22.626Z,15.60
2018-09-21T15:59:51.269Z,15.50
2018-09-21T16:02:19.845Z,15.40
2018-09-21T16:04:48.357Z,15.40
2018-09-21T16:07:16.962Z,15.40
2018-09-21T16:09:45.507Z,15.40
2018-09-21T16:12:14.104Z,15.20
2018-09-21T16:14:42.627Z,15.30
2018-09-21T16:17:11.186Z,15.30
2018-09-21T16:19:39.770Z,15.20
2018-09-21T16:22:08.385Z,15.30
2018-09-21T16:24:36.937Z,15.30
2018-09-21T16:27:05.582Z,15.30
2018-09-21T16:29:34.144Z,15.30
2018-09-21T16:32:02.697Z,15.10
2018-09-21T16:34:31.262Z,15.00
2018-09-21T16:36:59.864Z,14.90
2018-09-21T16:39:28.373Z,14.80
2018-09-21T16:41:56.933Z,14.80
2018-09-21T16:44:25.559Z,14.90
2018-09-21T16:46:54.207Z,14.90
2018-09-21T16:49:22.761Z,14.90
2018-09-21T16:51:51.561Z,15.00
2018-09-21T16:54:20.177Z,14.90
2018-09-21T16:56:48.753Z,14.90
2018-09-21T16:59:17.354Z,14.70
2018-09-21T17:01:45.979Z,14.70
2018-09-21T17:04:14.597Z,14.70
2018-09-21T17:06:43.173Z,14.70
2018-09-21T17:09:12.685Z,14.70
2018-09-21T17:11:41.290Z,14.60
2018-09-21T17:14:09.882Z,14.50
2018-09-21T17:16:38.464Z,14.40
2018-09-21T17:19:07.243Z,14.30
2018-09-21T17:21:35.837Z,14.40
2018-09-21T17:24:04.467Z,14.40
2018-09-21T17:26:33.028Z,14.40
2018-09-21T17:29:01.656Z,14.30
2018-09-21T17:31:30.223Z,14.20
2018-09-21T17:33:59.755Z,14.20
2018-09-21T17:36:28.299Z,14.20
2018-09-21T17:38:56.845Z,14.10
2018-09-21T17:41:25.381Z,14.10
2018-09-21T17:43:54.086Z,14.10
2018-09-21T17:46:22.597Z,14.10
2018-09-21T17:48:51.153Z,14.10
2018-09-21T17:51:19.692Z,14.00
2018-09-21T17:53:48.347Z,14.10
2018-09-21T17:56:16.921Z,14.10
2018-09-21T17:58:45.487Z,14.00
2018-09-21T18:01:14.115Z,13.90
2018-09-21T18:03:42.638Z,14.00
2018-09-21T18:06:11.265Z,14.00
2018-09-21T18:08:40.085Z,14.10
2018-09-21T18:11:08.633Z,13.90
2018-09-21T18:13:37.189Z,13.90
2018-09-21T18:16:05.845Z,13.90
2018-09-21T18:18:34.393Z,13.80
2018-09-21T18:21:02.954Z,13.80
2018-09-21T18:23:31.654Z,13.80
2018-09-21T18:26:00.282Z,13.70
2018-09-21T18:28:28.821Z,13.80
2018-09-21T18:30:57.389Z,13.70
2018-09-21T18:33:25.927Z,13.70
2018-09-21T18:35:54.493Z,13.70
2018-09-21T18:38:23.073Z,13.70
2018-09-21T18:40:51.682Z,13.70
2018-09-21T18:43:20.307Z,13.70
2018-09-21T18:45:49.022Z,13.70
2018-09-21T18:48:17.620Z,13.60
2018-09-21T18:50:46.261Z,13.60
2018-09-21T18:53:14.836Z,13.60
2018-09-21T18:55:43.446Z,13.70
2018-09-21T18:58:12.017Z,13.60
2018-09-21T19:00:40.638Z,13.70
2018-09-21T19:03:09.234Z,13.70
2018-09-21T19:05:37.807Z,13.60
2018-09-21T19:08:06.467Z,13.60
2018-09-21T19:10:35.049Z,13.60
2018-09-21T19:13:05.720Z,13.50
2018-09-21T19:15:34.405Z,13.60
2018-09-21T19:18:02.955Z,13.60
2018-09-21T19:20:31.658Z,13.60
2018-09-21T19:23:00.201Z,13.60
2018-09-21T19:25:28.757Z,13.60
2018-09-21T19:27:57.305Z,13.60
2018-09-21T19:30:25.982Z,13.80
2018-09-21T19:32:54.554Z,13.80
2018-09-21T19:35:23.093Z,13.80
2018-09-21T19:37:51.720Z,13.80
2018-09-21T19:40:20.314Z,13.70
2018-09-21T19:42:49.057Z,13.70
2018-09-21T19:45:17.578Z,13.60
2018-09-21T19:47:46.045Z,13.60
2018-09-21T19:50:14.625Z,13.60
2018-09-21T19:52:43.237Z,13.70
2018-09-21T19:55:12.017Z,13.70
2018-09-21T19:57:40.586Z,13.70
2018-09-21T20:00:09.178Z,13.60
2018-09-21T20:02:37.749Z,13.80
2018-09-21T20:05:06.401Z,13.60
2018-09-21T20:07:34.921Z,13.60
2018-09-21T20:10:03.581Z,13.70
2018-09-21T20:12:32.096Z,13.70
2018-09-21T20:15:00.650Z,13.70
2018-09-21T20:17:29.182Z,13.70
2018-09-21T20:19:57.750Z,13.70
2018-09-21T20:22:26.314Z,13.60
2018-09-21T20:24:54.858Z,13.60
2018-09-21T20:27:23.385Z,13.60
2018-09-21T20:29:56.159Z,13.70
2018-09-21T20:32:30.176Z,13.70
2018-09-21T20:34:58.717Z,13.70
2018-09-21T20:37:27.236Z,13.70
2018-09-21T20:39:55.872Z,13.50
2018-09-21T20:42:24.458Z,13.40
2018-09-21T20:44:53.045Z,13.50
2018-09-21T20:47:21.587Z,13.50
2018-09-21T20:49:50.173Z,13.70
2018-09-21T20:52:18.815Z,13.70
2018-09-21T20:54:47.442Z,13.60
2018-09-21T20:57:15.966Z,13.70
2018-09-21T20:59:44.609Z,13.60
2018-09-21T21:02:13.183Z,13.60
2018-09-21T21:04:41.723Z,13.70
2018-09-21T21:07:10.249Z,13.70
2018-09-21T21:09:38.789Z,13.50
2018-09-21T21:12:07.342Z,13.50
2018-09-21T21:14:36.009Z,13.60
2018-09-21T21:17:04.577Z,13.50
2018-09-21T21:19:33.111Z,13.40
2018-09-21T21:22:01.661Z,13.40
2018-09-21T21:24:30.198Z,13.30
2018-09-21T21:26:58.729Z,13.30
2018-09-21T21:29:27.237Z,13.30
2018-09-21T21:31:55.791Z,13.40
2018-09-21T21:34:24.318Z,13.60
2018-09-21T21:36:53.226Z,13.50
2018-09-21T21:39:22.199Z,13.50
2018-09-21T21:41:50.729Z,13.50
2018-09-21T21:44:20.397Z,13.40
2018-09-21T21:46:48.946Z,13.50
2018-09-21T21:49:17.493Z,13.50
2018-09-21T21:51:46.189Z,13.50
2018-09-21T21:54:14.684Z,13.50
2018-09-21T21:56:43.253Z,13.40
2018-09-21T21:59:11.784Z,13.30
2018-09-21T22:01:46.370Z,13.40
2018-09-21T22:04:16.159Z,13.30
2018-09-21T22:06:44.713Z,13.40
2018-09-21T22:09:13.253Z,13.30
2018-09-21T22:11:47.230Z,13.30
2018-09-21T22:14:16.016Z,13.30
2018-09-21T22:16:44.633Z,13.30
2018-09-21T22:19:13.165Z,13.20
2018-09-21T22:21:41.713Z,13.20
2018-09-21T22:24:10.246Z,13.10
2018-09-21T22:26:38.856Z,13.10
2018-09-21T22:29:07.375Z,13.10
2018-09-21T22:31:35.897Z,13.00
2018-09-21T22:34:04.506Z,13.00
2018-09-21T22:36:33.036Z,12.90
2018-09-21T22:39:01.597Z,12.90
2018-09-21T22:41:30.112Z,12.90
2018-09-21T22:43:58.657Z,12.80
2018-09-21T22:46:27.174Z,12.80
2018-09-21T22:48:56.445Z,12.90
2018-09-21T22:51:24.948Z,12.70
2018-09-21T22:53:53.497Z,12.70
2018-09-21T22:56:22.013Z,12.60
2018-09-21T22:58:50.574Z,12.60
2018-09-21T23:01:19.128Z,12.60
2018-09-21T23:03:47.778Z,12.60
2018-09-21T23:06:16.305Z,12.60
2018-09-21T23:08:44.875Z,12.60
2018-09-21T23:11:13.388Z,12.50
2018-09-21T23:13:41.914Z,12.40
2018-09-21T23:16:10.437Z,12.30
2018-09-21T23:18:39.081Z,12.20
2018-09-21T23:21:07.590Z,12.10
2018-09-21T23:23:36.139Z,12.10
2018-09-21T23:26:04.685Z,12.10
2018-09-21T23:28:33.189Z,12.00
2018-09-21T23:31:01.741Z,12.00
2018-09-21T23:33:30.288Z,12.10
2018-09-21T23:35:58.810Z,12.00
2018-09-21T23:38:27.337Z,11.90
2018-09-21T23:40:55.961Z,12.00
2018-09-21T23:43:24.498Z,12.00
2018-09-21T23:45:53.033Z,11.90
2018-09-21T23:48:21.605Z,11.80
2018-09-21T23:50:50.213Z,11.70
2018-09-21T23:53:18.749Z,11.60
2018-09-21T23:55:47.289Z,11.70
2018-09-21T23:58:15.894Z,11.70
